Time;durP1;ratioP1;P1;durP2;ratioP2;P2;SDS_P1;SDS_P2;PMS_P1;PMS_P2;Temp;Humidity;BMP_temperature;BMP_pressure;BME280_temperature;BME280_humidity;BME280_pressure;Samples;Min_cycle;Max_cycle;Signal;HPM_P1;HPM_P2
2024/03/05 00:00:14;;;;;;;;;;;9.00;99.90;;;9.19;70.35;100042.94;4942612;29;19934;-81
2024/03/05 00:02:43;;;;;;;;;;;8.90;99.90;;;9.14;70.29;100039.28;4944289;29;19927;-81
2024/03/05 00:05:13;;;;;;;;;;;8.90;99.90;;;9.10;69.94;100046.88;4927059;29;19933;-81
2024/03/05 00:07:41;;;;;;;;;;;8.80;99.90;;;9.08;70.12;100048.09;4944241;29;20025;-81
2024/03/05 00:10:08;;;;;;;;;;;8.80;99.90;;;9.05;70.04;100049.34;4981218;28;19926;-81
2024/03/05 00:12:37;;;;;;;;;;;8.70;99.90;;;9.06;70.13;100053.63;4965327;28;20019;-81
2024/03/05 00:15:05;;;;;;;;;;;8.80;99.90;;;9.05;70.01;100052.00;4981510;28;19926;-81
2024/03/05 00:17:32;;;;;;;;;;;8.80;99.90;;;9.03;69.96;100054.06;4981258;28;20310;-81
2024/03/05 00:19:59;;;;;;;;;;;8.70;99.90;;;9.03;70.10;100060.22;4981879;28;19926;-81
2024/03/05 00:22:29;;;;;;;;;;;8.70;99.90;;;9.04;70.47;100058.38;4981193;28;19927;-81
2024/03/05 00:24:58;;;;;;;;;;;8.70;99.90;;;9.03;70.61;100054.88;4965495;28;19926;-81
2024/03/05 00:27:27;;;;;;;;;;;8.70;99.90;;;9.05;70.69;100048.53;4966048;28;19926;-81
2024/03/05 00:29:54;;;;;;;;;;;8.70;99.90;;;9.03;70.81;100052.22;4948529;29;19969;-81
2024/03/05 00:32:21;;;;;;;;;;;8.80;99.90;;;9.04;70.94;100050.38;4946299;29;19978;-81
2024/03/05 00:34:49;;;;;;;;;;;8.80;99.90;;;9.06;70.85;100052.81;4963540;29;19927;-81
2024/03/05 00:37:16;;;;;;;;;;;8.70;99.90;;;9.08;71.10;100048.09;4887405;29;19927;-81
2024/03/05 00:39:46;;;;;;;;;;;8.80;99.90;;;9.08;71.13;100067.56;4917531;29;19956;-81
2024/03/05 00:42:13;;;;;;;;;;;8.80;99.90;;;9.07;71.16;100060.59;4906974;29;19974;-81
2024/03/05 00:44:42;;;;;;;;;;;8.80;99.90;;;9.08;71.46;100067.56;4922677;29;19942;-81
2024/03/05 00:47:10;;;;;;;;;;;8.80;99.90;;;9.07;71.42;100065.09;4923009;29;19927;-81
2024/03/05 00:49:37;;;;;;;;;;;8.80;99.90;;;9.05;71.62;100067.16;4921170;29;19942;-81
2024/03/05 00:52:05;;;;;;;;;;;8.70;99.90;;;9.03;71.66;100067.38;4922531;29;19927;-81
2024/03/05 00:54:32;;;;;;;;;;;8.70;99.90;;;9.00;71.79;100067.78;4906925;29;19927;-81
2024/03/05 00:57:01;;;;;;;;;;;8.70;99.90;;;9.02;71.89;100068.38;4922098;29;19927;-81
2024/03/05 00:59:29;;;;;;;;;;;8.70;99.90;;;9.01;71.91;100074.72;4898355;29;20452;-81
2024/03/05 01:01:57;;;;;;;;;;;8.70;99.90;;;9.01;72.09;100070.22;4884720;29;19934;-81
2024/03/05 01:04:25;;;;;;;;;;;8.70;99.90;;;9.02;72.17;100071.03;4885109;29;20018;-81
2024/03/05 01:06:54;;;;;;;;;;;8.70;99.90;;;9.01;72.25;100072.88;4853985;29;19980;-81
2024/03/05 01:09:24;;;;;;;;;;;8.70;99.90;;;9.00;72.32;100070.44;4949022;29;19926;-81
2024/03/05 01:11:53;;;;;;;;;;;8.70;99.90;;;8.98;72.53;100068.00;4945987;29;19930;-81
2024/03/05 01:14:22;;;;;;;;;;;8.70;99.90;;;8.97;72.54;100071.66;4961937;28;20363;-81
2024/03/05 01:16:50;;;;;;;;;;;8.70;99.90;;;8.97;72.62;100073.50;4962216;29;19962;-81
2024/03/05 01:19:17;;;;;;;;;;;8.70;99.90;;;8.97;72.56;100076.19;4963266;28;20299;-81
2024/03/05 01:21:47;;;;;;;;;;;8.70;99.90;;;8.97;72.78;100076.97;4945408;29;20352;-81
2024/03/05 01:24:14;;;;;;;;;;;8.70;99.90;;;8.97;72.79;100070.84;4963284;28;19961;-81
2024/03/05 01:26:43;;;;;;;;;;;8.70;99.90;;;8.97;72.82;100076.19;4946028;29;19927;-81
2024/03/05 01:29:16;;;;;;;;;;;8.70;99.90;;;8.97;72.85;100073.50;4945613;29;19970;-81
2024/03/05 01:31:45;;;;;;;;;;;8.70;99.90;;;8.96;72.97;100075.34;4930309;29;19950;-81
2024/03/05 01:34:13;;;;;;;;;;;8.70;99.90;;;8.97;73.12;100074.31;4944759;29;19926;-81
2024/03/05 01:36:40;;;;;;;;;;;8.70;99.90;;;8.99;73.26;100079.47;4944912;29;19927;-81
2024/03/05 01:39:09;;;;;;;;;;;8.70;99.90;;;8.99;73.38;100077.59;4961544;28;19926;-81
2024/03/05 01:41:36;;;;;;;;;;;8.80;99.90;;;9.02;73.49;100079.03;4962356;29;19958;-81
2024/03/05 01:44:04;;;;;;;;;;;8.80;99.90;;;9.04;73.37;100074.31;4944435;29;19977;-81
2024/03/05 01:46:31;;;;;;;;;;;8.80;99.90;;;9.05;73.33;100070.63;4961878;28;19984;-81
2024/03/05 01:49:00;;;;;;;;;;;8.80;99.90;;;9.06;73.57;100066.94;4962323;28;19938;-81
2024/03/05 01:51:27;;;;;;;;;;;8.80;99.90;;;9.07;73.50;100071.22;4962734;29;19927;-81
2024/03/05 01:53:55;;;;;;;;;;;8.80;99.90;;;9.08;73.43;100074.69;4962581;28;19930;-81
2024/03/05 01:56:22;;;;;;;;;;;8.80;99.90;;;9.09;73.30;100073.69;4931263;28;19972;-81
2024/03/05 01:58:49;;;;;;;;;;;8.90;99.90;;;9.09;73.45;100077.16;4982011;28;19926;-81
2024/03/05 02:01:16;;;;;;;;;;;8.80;99.90;;;9.09;73.59;100068.38;4982244;28;19926;-81
2024/03/05 02:03:44;;;;;;;;;;;8.80;99.90;;;9.10;73.56;100067.34;4964521;28;19926;-81
2024/03/05 02:06:24;;;;;;;;;;;8.90;99.90;;;9.09;73.47;100069.19;4962799;28;19926;-81
2024/03/05 02:08:51;;;;;;;;;;;8.80;99.90;;;9.10;73.59;100057.50;4944574;29;20383;-81
2024/03/05 02:11:19;;;;;;;;;;;8.90;99.90;;;9.12;73.60;100068.75;4944840;29;19937;-81
2024/03/05 02:13:46;;;;;;;;;;;8.90;99.90;;;9.15;73.46;100067.53;4945919;29;19937;-81
2024/03/05 02:16:13;;;;;;;;;;;8.90;99.90;;;9.16;73.57;100061.97;4961431;28;19927;-81
2024/03/05 02:18:42;;;;;;;;;;;8.90;99.90;;;9.17;73.46;100066.25;4960663;28;19997;-81
2024/03/05 02:21:20;;;;;;;;;;;8.90;99.90;;;9.19;73.36;100063.41;4961911;29;19931;-81
2024/03/05 02:23:48;;;;;;;;;;;8.90;99.90;;;9.19;73.37;100060.75;4944750;29;19930;-81
2024/03/05 02:26:17;;;;;;;;;;;9.00;99.90;;;9.22;73.35;100069.13;4959663;29;20303;-81
2024/03/05 02:28:46;;;;;;;;;;;8.90;99.90;;;9.22;73.05;100071.78;4960339;29;19926;-81
2024/03/05 02:31:13;;;;;;;;;;;9.00;99.90;;;9.21;73.08;100067.47;4961275;28;20013;-81
2024/03/05 02:33:43;;;;;;;;;;;8.90;99.90;;;9.18;72.86;100062.59;4961680;29;20029;-81
2024/03/05 02:36:11;;;;;;;;;;;8.90;99.90;;;9.17;72.84;100066.25;4942769;29;19927;-81
2024/03/05 02:38:39;;;;;;;;;;;8.90;99.90;;;9.14;72.76;100061.38;4925557;29;19931;-81
2024/03/05 02:41:06;;;;;;;;;;;8.90;99.90;;;9.12;72.65;100070.59;4925482;29;19966;-81
2024/03/05 02:43:35;;;;;;;;;;;8.90;99.90;;;9.10;72.67;100065.50;4942494;29;19933;-81
2024/03/05 02:46:02;;;;;;;;;;;8.90;99.90;;;9.08;72.61;100056.91;4940787;29;19973;-81
2024/03/05 02:48:30;;;;;;;;;;;8.80;99.90;;;9.08;72.76;100062.25;4942274;29;19934;-81
2024/03/05 02:50:58;;;;;;;;;;;8.80;99.90;;;9.07;72.51;100065.91;4942268;29;19927;-81
2024/03/05 02:53:27;;;;;;;;;;;8.90;99.90;;;9.06;72.69;100063.47;4942856;29;20013;-81
2024/03/05 02:55:54;;;;;;;;;;;8.80;99.90;;;9.08;72.71;100064.06;4924807;29;19933;-81
2024/03/05 02:58:21;;;;;;;;;;;8.90;99.90;;;9.05;72.62;100052.00;4941737;29;19927;-81
2024/03/05 03:00:48;;;;;;;;;;;8.80;99.90;;;9.03;72.72;100051.41;4927818;29;19927;-81
2024/03/05 03:03:16;;;;;;;;;;;8.80;99.90;;;9.05;72.82;100053.84;4906271;29;19952;-81
2024/03/05 03:05:45;;;;;;;;;;;8.90;99.90;;;9.05;72.75;100054.66;4923898;29;19933;-81
2024/03/05 03:08:12;;;;;;;;;;;8.90;99.90;;;9.08;72.74;100054.25;4917592;29;19962;-81
2024/03/05 03:10:41;;;;;;;;;;;8.90;99.90;;;9.08;72.67;100046.28;4905729;29;19927;-81
2024/03/05 03:13:08;;;;;;;;;;;8.90;99.90;;;9.08;72.61;100048.09;4922724;29;19971;-81
2024/03/05 03:15:35;;;;;;;;;;;8.90;99.90;;;9.08;72.79;100048.94;4921042;29;20510;-81
2024/03/05 03:18:04;;;;;;;;;;;8.90;99.90;;;9.08;72.68;100048.09;4940728;29;19934;-81
2024/03/05 03:20:32;;;;;;;;;;;8.90;99.90;;;9.07;72.79;100052.59;4924444;29;19927;-81
2024/03/05 03:23:00;;;;;;;;;;;8.80;99.90;;;9.05;72.73;100049.34;4924288;29;19953;-81
2024/03/05 03:25:30;;;;;;;;;;;8.80;99.90;;;9.04;72.89;100047.72;4941757;29;19998;-81
2024/03/05 03:28:00;;;;;;;;;;;8.80;99.90;;;9.05;72.70;100056.50;4941842;29;20082;-81
2024/03/05 03:30:29;;;;;;;;;;;8.80;99.90;;;9.03;72.68;100048.75;4892407;29;19927;-81
2024/03/05 03:32:56;;;;;;;;;;;8.80;99.90;;;9.03;72.67;100056.72;4909683;29;19931;-80
2024/03/05 03:35:24;;;;;;;;;;;8.80;99.90;;;9.03;72.68;100054.88;4924019;29;19966;-80
2024/03/05 03:37:52;;;;;;;;;;;8.80;99.90;;;9.04;72.47;100058.38;4928565;29;19961;-81
2024/03/05 03:40:21;;;;;;;;;;;8.80;99.90;;;8.99;72.51;100053.69;4945685;29;19938;-81
2024/03/05 03:42:51;;;;;;;;;;;8.80;99.90;;;8.98;72.39;100061.88;4946531;29;19930;-81
2024/03/05 03:45:18;;;;;;;;;;;8.80;99.90;;;8.96;72.33;100058.59;4947269;29;20017;-81
2024/03/05 03:47:46;;;;;;;;;;;8.80;99.90;;;8.96;72.29;100053.28;4968916;28;19962;-81
2024/03/05 03:50:14;;;;;;;;;;;8.70;99.90;;;8.93;72.15;100059.84;4945700;29;19934;-81
2024/03/05 03:52:43;;;;;;;;;;;8.70;99.90;;;8.92;72.17;100050.22;4975986;28;19926;-81
2024/03/05 03:55:11;;;;;;;;;;;8.70;99.90;;;8.91;72.31;100045.09;4935075;29;19978;-81
2024/03/05 03:57:38;;;;;;;;;;;8.70;99.90;;;8.88;72.08;100050.84;4926381;29;20407;-81
2024/03/05 04:00:07;;;;;;;;;;;8.70;99.90;;;8.87;71.98;100059.84;4924355;29;20354;-81
2024/03/05 04:02:37;;;;;;;;;;;8.60;99.90;;;8.84;72.12;100055.78;4925666;29;19927;-81
2024/03/05 04:05:09;;;;;;;;;;;8.60;99.90;;;8.84;72.27;100057.63;4926271;29;20365;-81
2024/03/05 04:07:36;;;;;;;;;;;8.60;99.90;;;8.83;72.01;100053.31;4925846;29;19927;-81
2024/03/05 04:10:06;;;;;;;;;;;8.60;99.90;;;8.80;72.16;100057.22;4956624;28;20029;-81
2024/03/05 04:12:33;;;;;;;;;;;8.60;99.90;;;8.79;71.96;100060.91;4952469;29;19927;-81
2024/03/05 04:15:00;;;;;;;;;;;8.50;99.90;;;8.77;71.77;100062.94;4944310;29;19927;-81
2024/03/05 04:17:28;;;;;;;;;;;8.50;99.90;;;8.76;71.50;100070.09;4960047;28;20455;-81
2024/03/05 04:19:57;;;;;;;;;;;8.50;99.90;;;8.74;71.39;100055.41;4943556;29;19927;-81
2024/03/05 04:22:25;;;;;;;;;;;8.50;99.90;;;8.73;71.27;100065.19;4944963;29;20026;-81
2024/03/05 04:24:55;;;;;;;;;;;8.50;99.90;;;8.69;71.07;100065.84;4944125;29;19927;-81
2024/03/05 04:27:26;;;;;;;;;;;8.40;99.90;;;8.64;70.97;100070.97;4944159;29;19970;-81
2024/03/05 04:29:56;;;;;;;;;;;8.40;99.90;;;8.60;70.91;100067.91;4943398;29;19926;-81
2024/03/05 04:32:26;;;;;;;;;;;8.30;99.90;;;8.56;70.79;100069.34;4942583;29;19927;-81
2024/03/05 04:35:00;;;;;;;;;;;8.30;99.90;;;8.54;71.08;100067.91;4945270;29;19933;-81
2024/03/05 04:37:30;;;;;;;;;;;8.20;99.90;;;8.50;71.32;100076.31;4974467;28;19927;-81
2024/03/05 04:39:58;;;;;;;;;;;8.20;99.90;;;8.47;71.43;100066.09;4945252;29;19933;-81
2024/03/05 04:42:25;;;;;;;;;;;8.30;99.90;;;8.47;71.52;100067.94;4943063;29;20444;-81
2024/03/05 04:44:54;;;;;;;;;;;8.20;99.90;;;8.46;71.47;100069.78;4949244;29;19944;-81
2024/03/05 04:47:21;;;;;;;;;;;8.20;99.90;;;8.47;71.66;100076.72;4961060;29;20033;-80
2024/03/05 04:49:49;;;;;;;;;;;8.20;99.90;;;8.48;71.54;100074.88;4967796;29;20395;-81
2024/03/05 04:52:16;;;;;;;;;;;8.20;99.90;;;8.46;71.59;100075.09;4976639;28;19926;-80
2024/03/05 04:54:46;;;;;;;;;;;8.20;99.90;;;8.47;71.70;100075.91;4979721;28;20347;-81
2024/03/05 04:57:13;;;;;;;;;;;8.20;99.90;;;8.49;71.56;100077.34;4962649;28;20395;-82
2024/03/05 04:59:40;;;;;;;;;;;8.20;99.90;;;8.50;71.84;100080.81;4980895;28;20350;-81
2024/03/05 05:02:07;;;;;;;;;;;8.30;99.90;;;8.49;71.98;100079.16;4971208;28;20414;-82
2024/03/05 05:04:37;;;;;;;;;;;8.20;99.90;;;8.48;72.05;100077.53;4960693;29;19926;-82
2024/03/05 05:07:07;;;;;;;;;;;8.20;99.90;;;8.48;72.11;100083.66;4960845;28;19926;-81
2024/03/05 05:09:34;;;;;;;;;;;8.20;99.90;;;8.50;72.26;100083.47;4959470;29;19926;-81
2024/03/05 05:12:05;;;;;;;;;;;8.20;99.90;;;8.52;72.33;100092.03;4959666;29;19931;-81
2024/03/05 05:14:32;;;;;;;;;;;8.20;99.90;;;8.53;72.42;100088.34;4960515;29;20447;-80
2024/03/05 05:17:01;;;;;;;;;;;8.30;99.90;;;8.56;72.33;100090.63;4943506;28;19981;-80
2024/03/05 05:19:28;;;;;;;;;;;8.30;99.90;;;8.55;72.40;100101.47;4943680;29;19966;-81
2024/03/05 05:21:56;;;;;;;;;;;8.30;99.90;;;8.54;72.50;100092.66;4943845;29;19933;-80
2024/03/05 05:24:23;;;;;;;;;;;8.30;99.90;;;8.57;72.58;100091.44;4960704;29;19966;-81
2024/03/05 05:26:51;;;;;;;;;;;8.30;99.90;;;8.56;72.59;100093.28;4943730;29;19990;-80
2024/03/05 05:29:20;;;;;;;;;;;8.30;99.90;;;8.54;72.66;100090.00;4943616;29;19926;-81
2024/03/05 05:31:47;;;;;;;;;;;8.30;99.90;;;8.53;72.64;100085.69;4960758;29;19931;-80
2024/03/05 05:34:14;;;;;;;;;;;8.30;99.90;;;8.54;72.79;100087.34;4958819;29;19930;-80
2024/03/05 05:36:42;;;;;;;;;;;8.30;99.90;;;8.53;72.74;100085.69;4960153;29;20414;-80
2024/03/05 05:39:09;;;;;;;;;;;8.30;99.90;;;8.55;72.99;100094.31;4941298;29;19927;-80
2024/03/05 05:41:38;;;;;;;;;;;8.30;99.90;;;8.56;72.94;100087.94;4940864;29;20017;-80
2024/03/05 05:44:05;;;;;;;;;;;8.40;99.90;;;8.57;73.02;100089.59;4892005;29;19927;-80
2024/03/05 05:46:35;;;;;;;;;;;8.40;99.90;;;8.58;72.92;100099.19;4959896;29;19934;-80
2024/03/05 05:49:05;;;;;;;;;;;8.40;99.90;;;8.61;72.96;100092.66;4976379;28;19933;-80
2024/03/05 05:51:33;;;;;;;;;;;8.40;99.90;;;8.62;72.95;100089.78;4946653;28;20013;-80
2024/03/05 05:54:01;;;;;;;;;;;8.40;99.90;;;8.63;72.86;100090.59;4959755;28;20347;-80
2024/03/05 05:56:29;;;;;;;;;;;8.40;99.90;;;8.63;73.05;100085.28;4942338;29;20311;-80
2024/03/05 05:58:56;;;;;;;;;;;8.40;99.90;;;8.62;72.85;100088.97;4942783;29;19950;-80
2024/03/05 06:01:24;;;;;;;;;;;8.40;99.90;;;8.63;72.84;100090.59;4960590;29;19927;-80
2024/03/05 06:03:53;;;;;;;;;;;8.40;99.90;;;8.63;72.87;100096.72;4942391;29;20391;-80
2024/03/05 06:06:21;;;;;;;;;;;8.40;99.90;;;8.61;72.76;100098.78;4959690;29;20042;-80
2024/03/05 06:08:51;;;;;;;;;;;8.40;99.90;;;8.62;72.92;100099.59;4942829;29;20285;-80
2024/03/05 06:11:18;;;;;;;;;;;8.40;99.90;;;8.61;72.89;100101.44;4959741;28;20294;-80
2024/03/05 06:13:46;;;;;;;;;;;8.30;99.90;;;8.62;73.03;100103.06;4959840;28;19978;-80
2024/03/05 06:16:16;;;;;;;;;;;8.40;99.90;;;8.62;73.03;100102.25;4979707;28;20399;-80
2024/03/05 06:18:43;;;;;;;;;;;8.70;99.90;;;8.63;73.04;100098.56;4980402;28;19926;-80
2024/03/05 06:21:12;;;;;;;;;;;8.40;99.90;;;8.62;72.96;100095.09;4979119;28;19930;-80
2024/03/05 06:23:39;;;;;;;;;;;8.40;99.90;;;8.65;73.02;100100.00;4961723;28;19973;-80
2024/03/05 06:26:07;;;;;;;;;;;8.40;99.90;;;8.68;72.94;100094.25;4980493;28;20013;-80
2024/03/05 06:28:34;;;;;;;;;;;8.40;99.90;;;8.70;73.07;100094.88;4947511;28;20459;-80
2024/03/05 06:31:04;;;;;;;;;;;8.50;99.90;;;8.72;72.98;100089.34;4941470;29;19931;-81
2024/03/05 06:33:32;;;;;;;;;;;8.50;99.90;;;8.71;73.03;100093.84;4942539;29;20029;-86
2024/03/05 06:35:59;;;;;;;;;;;8.50;99.90;;;8.72;73.04;100087.50;4959186;28;20025;-86
2024/03/05 06:38:28;;;;;;;;;;;8.50;99.90;;;8.71;72.98;100085.06;4960117;28;19935;-86
2024/03/05 06:40:55;;;;;;;;;;;8.50;99.90;;;8.72;73.26;100095.47;4942235;29;19977;-85
2024/03/05 06:43:32;;;;;;;;;;;8.50;99.90;;;8.71;73.05;100096.50;4940212;29;20022;-82
2024/03/05 06:46:00;;;;;;;;;;;8.50;99.90;;;8.71;73.08;100101.81;4908889;29;19927;-85
2024/03/05 06:48:32;;;;;;;;;;;8.50;99.90;;;8.73;72.99;100098.94;4924420;29;19927;-85
2024/03/05 06:51:03;;;;;;;;;;;8.50;99.90;;;8.72;72.94;100103.44;4924055;29;20388;-85
2024/03/05 06:59:03;;;;;;;;;;;8.50;99.90;;;8.73;73.04;100118.38;4938373;29;19954;-84
2024/03/05 07:01:31;;;;;;;;;;;8.50;99.90;;;8.76;73.09;100117.16;4939010;29;19981;-83
2024/03/05 07:03:59;;;;;;;;;;;8.50;99.90;;;8.76;73.12;100119.81;4908839;29;19966;-82
2024/03/05 07:06:26;;;;;;;;;;;8.50;99.90;;;8.77;73.00;100116.13;4927827;29;20348;-81
2024/03/05 07:08:56;;;;;;;;;;;8.50;99.90;;;8.75;73.02;100121.66;4933873;29;19927;-81
2024/03/05 07:11:25;;;;;;;;;;;8.50;99.90;;;8.76;72.97;100120.63;4943047;29;19927;-81
2024/03/05 07:13:52;;;;;;;;;;;8.50;99.90;;;8.76;73.07;100119.81;4909856;29;20419;-80
2024/03/05 07:16:23;;;;;;;;;;;8.60;99.90;;;8.78;73.00;100123.06;4925282;29;19934;-81
2024/03/05 07:18:52;;;;;;;;;;;8.60;99.90;;;8.78;73.09;100125.72;4924935;29;19957;-81
2024/03/05 07:21:22;;;;;;;;;;;8.60;99.90;;;8.82;73.15;100126.13;4941763;29;19970;-81
2024/03/05 07:23:50;;;;;;;;;;;8.60;99.90;;;8.82;73.07;100123.47;4941366;29;19933;-81
2024/03/05 07:26:18;;;;;;;;;;;8.60;99.90;;;8.84;73.20;100121.44;4942167;29;19981;-80
2024/03/05 07:28:46;;;;;;;;;;;8.70;99.90;;;8.86;73.24;100122.03;4924897;29;20040;-80
2024/03/05 07:31:14;;;;;;;;;;;8.60;99.90;;;8.86;73.34;100124.69;4934018;29;19934;-80
2024/03/05 07:33:42;;;;;;;;;;;8.70;99.90;;;8.88;73.34;100119.97;4925032;29;19953;-80
2024/03/05 07:36:09;;;;;;;;;;;8.70;99.90;;;8.90;73.16;100118.75;4941793;29;19927;-80
2024/03/05 07:38:38;;;;;;;;;;;8.70;99.90;;;8.91;73.19;100111.59;4941460;29;20400;-80
2024/03/05 07:41:07;;;;;;;;;;;8.70;99.90;;;8.94;73.44;100119.16;4924008;29;20426;-80
2024/03/05 07:43:36;;;;;;;;;;;8.70;99.90;;;8.97;73.24;100113.41;4924702;29;19933;-81
2024/03/05 07:46:04;;;;;;;;;;;8.70;99.90;;;8.99;73.27;100116.69;4890149;29;19949;-81
2024/03/05 07:48:31;;;;;;;;;;;8.80;99.90;;;9.01;73.56;100119.94;4950689;29;20351;-81
2024/03/05 07:50:58;;;;;;;;;;;8.80;99.90;;;9.01;73.34;100118.09;4958042;29;19970;-82
2024/03/05 07:53:25;;;;;;;;;;;8.80;99.90;;;9.02;73.45;100119.72;4949384;29;19989;-82
2024/03/05 07:55:53;;;;;;;;;;;8.80;99.90;;;9.05;73.43;100115.03;4943098;29;20388;-82
2024/03/05 07:58:20;;;;;;;;;;;8.90;99.90;;;9.06;73.32;100122.78;4960781;29;19933;-82
2024/03/05 08:00:49;;;;;;;;;;;8.90;99.90;;;9.08;73.50;100120.75;4955220;28;20783;-82
2024/03/05 08:03:18;;;;;;;;;;;8.90;99.90;;;9.10;73.48;100121.34;4980740;28;20331;-82
2024/03/05 08:05:45;;;;;;;;;;;8.90;99.90;;;9.11;73.42;100132.81;4952483;29;19965;-82
2024/03/05 08:08:14;;;;;;;;;;;8.90;99.90;;;9.12;73.56;100135.25;4943076;29;19934;-82
2024/03/05 08:10:42;;;;;;;;;;;8.90;99.90;;;9.13;73.40;100128.94;4961837;29;19931;-82
2024/03/05 08:13:09;;;;;;;;;;;8.90;99.90;;;9.14;73.39;100127.91;4945876;29;19926;-82
2024/03/05 08:15:38;;;;;;;;;;;9.00;99.90;;;9.16;73.16;100130.34;4947731;29;20408;-82
2024/03/05 08:18:12;;;;;;;;;;;9.00;99.90;;;9.17;73.07;100127.44;4954622;29;19977;-82
2024/03/05 08:20:39;;;;;;;;;;;9.00;99.90;;;9.19;73.22;100132.59;4928627;28;19990;-81
2024/03/05 08:23:07;;;;;;;;;;;9.00;99.90;;;9.22;73.37;100126.81;4957552;29;19927;-82
2024/03/05 08:25:35;;;;;;;;;;;9.10;99.90;;;9.23;73.24;100123.16;4945933;29;20282;-82
2024/03/05 08:28:03;;;;;;;;;;;9.10;99.90;;;9.24;73.32;100128.25;4960665;29;20478;-82
2024/03/05 08:30:31;;;;;;;;;;;9.10;99.90;;;9.26;73.23;100120.88;4946838;29;19935;-82
2024/03/05 08:33:00;;;;;;;;;;;9.10;99.90;;;9.30;73.25;100121.28;4913648;29;19932;-82
2024/03/05 08:35:30;;;;;;;;;;;9.20;99.90;;;9.33;73.36;100120.06;4944636;29;19993;-82
2024/03/05 08:37:58;;;;;;;;;;;9.20;99.90;;;9.37;73.37;100129.22;4949566;29;19927;-83
2024/03/05 08:40:27;;;;;;;;;;;9.20;99.90;;;9.38;73.13;100130.88;4955349;29;19935;-82
2024/03/05 08:42:55;;;;;;;;;;;9.20;99.90;;;9.40;73.34;100132.28;4939036;29;20311;-82
2024/03/05 08:45:23;;;;;;;;;;;9.30;99.90;;;9.42;73.21;100127.59;4949187;29;19938;-82
2024/03/05 08:47:52;;;;;;;;;;;9.30;99.90;;;9.46;73.18;100127.94;4956133;28;19978;-82
2024/03/05 08:50:20;;;;;;;;;;;9.30;99.90;;;9.49;73.23;100122.22;4946691;29;19978;-82
2024/03/05 08:52:49;;;;;;;;;;;9.40;99.90;;;9.52;73.66;100127.94;4928471;29;19930;-82
2024/03/05 08:55:17;;;;;;;;;;;9.40;99.90;;;9.53;74.45;100126.09;4962102;29;19926;-82
2024/03/05 08:57:45;;;;;;;;;;;9.40;99.90;;;9.58;74.71;100131.59;4957398;28;19977;-82
2024/03/05 09:00:15;;;;;;;;;;;9.50;99.90;;;9.54;74.96;100127.72;4937836;29;19936;-82
2024/03/05 09:02:43;;;;;;;;;;;9.50;99.90;;;9.55;74.76;100132.81;4962800;29;19926;-83
2024/03/05 09:05:10;;;;;;;;;;;9.60;99.90;;;9.57;74.37;100132.63;4959449;29;19927;-82
2024/03/05 09:07:39;;;;;;;;;;;9.60;99.90;;;9.57;74.23;100132.63;4962678;29;19933;-82
2024/03/05 09:10:10;;;;;;;;;;;9.60;99.90;;;9.55;74.21;100135.47;4962314;29;19927;-82
2024/03/05 09:12:37;;;;;;;;;;;9.60;99.90;;;9.55;74.63;100137.34;4960987;28;19968;-82
2024/03/05 09:15:08;;;;;;;;;;;9.60;99.90;;;9.62;74.33;100139.97;4975367;28;20009;-82
2024/03/05 09:17:35;;;;;;;;;;;9.60;99.90;;;9.64;74.02;100141.38;4981069;28;20376;-82
2024/03/05 09:20:13;;;;;;;;;;;9.70;99.90;;;9.66;74.21;100142.00;4963454;28;19930;-82
2024/03/05 09:22:43;;;;;;;;;;;9.70;99.90;;;9.60;73.96;100140.16;4963551;28;19973;-82
2024/03/05 09:25:12;;;;;;;;;;;9.70;99.90;;;9.62;74.13;100134.66;4963286;28;19952;-82
2024/03/05 09:27:40;;;;;;;;;;;9.70;99.90;;;9.66;73.83;100135.84;4960081;28;19934;-84
2024/03/05 09:30:13;;;;;;;;;;;9.70;99.90;;;9.65;73.81;100139.53;4961750;28;20300;-82
2024/03/05 09:32:41;;;;;;;;;;;9.70;99.90;;;9.65;73.62;100140.34;4961350;29;19933;-82
2024/03/05 09:35:09;;;;;;;;;;;9.70;99.90;;;9.70;73.65;100140.53;4942651;28;19977;-82
2024/03/05 09:37:37;;;;;;;;;;;9.80;99.90;;;9.67;73.12;100142.81;4961799;28;19933;-82
2024/03/05 09:40:16;;;;;;;;;;;9.80;99.90;;;9.59;73.61;100145.72;4956583;28;20344;-82
2024/03/05 09:42:45;;;;;;;;;;;9.70;99.90;;;9.64;73.81;100143.22;4950049;29;19930;-82
2024/03/05 09:45:16;;;;;;;;;;;9.80;99.90;;;9.62;73.82;100151.44;4954179;28;19926;-82
2024/03/05 09:47:43;;;;;;;;;;;9.80;99.90;;;9.64;73.99;100152.03;4928791;29;20363;-82
2024/03/05 09:50:13;;;;;;;;;;;9.80;99.90;;;9.70;73.75;100151.19;4936421;29;19947;-82
2024/03/05 09:52:40;;;;;;;;;;;9.80;99.90;;;9.70;73.88;100151.19;4941693;29;20400;-82
2024/03/05 09:55:08;;;;;;;;;;;9.80;99.90;;;9.75;73.75;100158.53;4941822;29;20475;-82
2024/03/05 09:57:39;;;;;;;;;;;9.80;99.90;;;9.72;73.38;100153.66;4935269;29;20400;-81
2024/03/05 10:00:17;;;;;;;;;;;9.80;99.90;;;9.72;73.57;100164.28;4929665;29;19927;-81
2024/03/05 10:02:47;;;;;;;;;;;9.80;99.90;;;9.72;73.45;100166.97;4942839;29;19937;-82
2024/03/05 10:05:15;;;;;;;;;;;9.80;99.90;;;9.72;73.10;100166.97;4916032;29;20368;-82
2024/03/05 10:07:42;;;;;;;;;;;9.80;99.90;;;9.67;73.19;100164.94;4925532;29;20381;-82
2024/03/05 10:10:12;;;;;;;;;;;9.80;99.90;;;9.69;73.40;100165.53;4941651;29;19927;-82
2024/03/05 10:12:39;;;;;;;;;;;9.80;99.90;;;9.72;73.38;100174.94;4941141;29;20014;-82
2024/03/05 10:15:17;;;;;;;;;;;9.80;99.90;;;9.75;73.34;100167.31;4939645;29;20325;-81
2024/03/05 10:17:48;;;;;;;;;;;9.90;99.90;;;9.74;73.62;100171.03;4942284;29;20308;-81
2024/03/05 10:20:26;;;;;;;;;;;9.90;99.90;;;9.77;73.28;100175.13;4912663;29;19926;-82
2024/03/05 10:22:54;;;;;;;;;;;9.90;99.90;;;9.83;73.22;100176.94;4928335;29;20474;-81
2024/03/05 10:25:22;;;;;;;;;;;9.90;99.90;;;9.86;73.45;100175.66;4922054;29;19927;-81
2024/03/05 10:27:49;;;;;;;;;;;10.00;99.90;;;9.84;74.18;100183.06;4922671;29;19934;-81
2024/03/05 10:30:28;;;;;;;;;;;10.00;99.90;;;9.82;74.04;100177.97;4921308;29;19979;-82
2024/03/05 10:32:59;;;;;;;;;;;10.00;99.90;;;9.84;73.86;100188.41;4922939;29;19978;-82
2024/03/05 10:35:26;;;;;;;;;;;10.00;99.90;;;9.78;73.57;100190.06;4923059;29;19928;-81
2024/03/05 10:37:58;;;;;;;;;;;9.90;99.90;;;9.76;73.33;100182.31;4920833;29;19935;-82
2024/03/05 10:40:26;;;;;;;;;;;9.90;99.90;;;9.84;73.68;100191.06;4904017;29;20377;-81
2024/03/05 10:42:54;;;;;;;;;;;9.90;99.90;;;9.82;73.61;100191.28;4890111;29;19962;-82
2024/03/05 10:45:23;;;;;;;;;;;9.90;99.90;;;9.86;73.85;100189.00;4937561;29;19975;-82
2024/03/05 10:47:53;;;;;;;;;;;9.90;99.90;;;9.89;73.86;100193.91;4955306;28;19970;-81
2024/03/05 10:50:21;;;;;;;;;;;9.90;99.90;;;9.91;73.85;100198.00;4940002;29;19927;-82
2024/03/05 10:52:49;;;;;;;;;;;9.90;99.90;;;9.93;74.15;100195.09;4941591;29;19931;-81
2024/03/05 10:55:21;;;;;;;;;;;9.90;99.90;;;9.91;73.80;100191.84;4941776;29;20446;-81
2024/03/05 11:00:35;;;;;;;;;;;9.90;99.90;;;9.88;73.88;100194.94;4956485;29;19933;-82
2024/03/05 11:03:07;;;;;;;;;;;9.90;99.90;;;9.90;74.14;100203.50;4940292;29;19927;-81
2024/03/05 11:05:40;;;;;;;;;;;9.90;99.90;;;9.93;74.11;100205.75;4939964;29;19927;-82
2024/03/05 11:08:13;;;;;;;;;;;9.90;99.90;;;9.89;74.60;100193.91;4940298;29;19934;-81
2024/03/05 11:10:47;;;;;;;;;;;9.90;99.90;;;9.84;74.74;100202.53;4940969;29;19927;-82
2024/03/05 11:13:15;;;;;;;;;;;9.80;99.90;;;9.86;74.71;100204.97;4940001;29;19974;-82
2024/03/05 11:15:43;;;;;;;;;;;9.80;99.90;;;9.85;74.66;100196.16;4942116;29;20013;-82
2024/03/05 11:18:34;;;;;;;;;;;9.80;99.90;;;9.79;74.79;100197.84;4940501;29;19927;-82
2024/03/05 11:21:05;;;;;;;;;;;9.80;99.90;;;9.80;75.08;100196.81;4939302;29;19934;-82
2024/03/05 11:23:36;;;;;;;;;;;9.80;99.90;;;9.80;74.85;100193.31;4941375;29;19927;-81
2024/03/05 11:26:06;;;;;;;;;;;9.80;99.90;;;9.82;74.81;100195.78;4941200;29;19938;-82
2024/03/05 11:28:35;;;;;;;;;;;9.80;99.90;;;9.83;74.96;100189.44;4941613;29;19927;-82
2024/03/05 11:31:13;;;;;;;;;;;9.80;99.90;;;9.85;75.13;100198.81;4940175;29;19992;-82
2024/03/05 11:33:42;;;;;;;;;;;9.80;99.90;;;9.84;75.03;100191.88;4946713;28;19997;-82
2024/03/05 11:36:23;;;;;;;;;;;9.80;99.90;;;9.84;75.42;100207.03;4923240;29;19928;-82
2024/03/05 11:38:57;;;;;;;;;;;9.80;99.90;;;9.89;75.31;100209.88;4920928;29;19927;-82